Time;durP1;ratioP1;P1;durP2;ratioP2;P2;SDS_P1;SDS_P2;PMS_P1;PMS_P2;Temp;Humidity;BMP_temperature;BMP_pressure;BME280_temperature;BME280_humidity;BME280_pressure;Samples;Min_cycle;Max_cycle;Signal;HPM_P1;HPM_P2
2022/12/21 00:02:11;;;;;;;;;;;;;;;;;;5042081;28;19932;-83
2022/12/21 00:04:37;;;;;;;;;;;;;;;;;;5040685;28;19969;-82
2022/12/21 00:07:03;;;;;;;;;;;;;;;;;;5039850;28;19991;-81
2022/12/21 00:09:29;;;;;;;;;;;;;;;;;;5037395;28;19971;-82
2022/12/21 00:11:55;;;;;;;;;;;;;;;;;;5037654;28;19979;-81
2022/12/21 00:14:20;;;;;;;;;;;;;;;;;;5037163;28;20327;-83
2022/12/21 00:16:46;;;;;;;;;;;;;;;;;;5038568;28;19925;-82
2022/12/21 00:19:15;;;;;;;;;;;;;;;;;;5037737;28;19931;-82
2022/12/21 00:21:41;;;;;;;;;;;;;;;;;;5040558;28;19925;-81
2022/12/21 00:24:07;;;;;;;;;;;;;;;;;;5039191;28;19975;-82
2022/12/21 00:26:33;;;;;;;;;;;;;;;;;;5050474;28;20319;-82
2022/12/21 00:28:59;;;;;;;;;;;;;;;;;;5033387;28;19925;-83
2022/12/21 00:31:25;;;;;;;;;;;;;;;;;;5031858;28;19925;-83
2022/12/21 00:33:51;;;;;;;;;;;;;;;;;;5037920;28;19980;-82
2022/12/21 00:36:17;;;;;;;;;;;;;;;;;;5050468;28;19936;-81
2022/12/21 00:38:42;;;;;;;;;;;;;;;;;;5053637;28;19943;-82
2022/12/21 00:41:08;;;;;;;;;;;;;;;;;;5051225;28;19929;-82
2022/12/21 00:43:34;;;;;;;;;;;;;;;;;;5031768;28;19925;-82
2022/12/21 00:46:00;;;;;;;;;;;;;;;;;;5037603;28;19925;-82
2022/12/21 00:48:26;;;;;;;;;;;;;;;;;;5032944;28;20017;-82
2022/12/21 00:50:52;;;;;;;;;;;;;;;;;;5043496;28;19956;-83
2022/12/21 00:53:18;;;;;;;;;;;;;;;;;;5035675;28;20378;-81
2022/12/21 00:55:44;;;;;;;;;;;;;;;;;;5035378;28;19980;-83
2022/12/21 00:58:10;;;;;;;;;;;;;;;;;;5032558;28;20013;-80
2022/12/21 01:00:36;;;;;;;;;;;;;;;;;;5034360;28;19926;-81
2022/12/21 01:03:01;;;;;;;;;;;;;;;;;;5048069;28;19909;-82
2022/12/21 01:05:29;;;;;;;;;;;;;;;;;;5048379;28;19957;-81
2022/12/21 01:07:55;;;;;;;;;;;;;;;;;;5050826;28;19992;-81
2022/12/21 01:10:21;;;;;;;;;;;;;;;;;;5048357;28;19925;-81
2022/12/21 01:12:48;;;;;;;;;;;;;;;;;;5040107;28;19987;-81
2022/12/21 01:15:14;;;;;;;;;;;;;;;;;;5040969;28;20327;-83
2022/12/21 01:17:40;;;;;;;;;;;;;;;;;;5039954;28;19925;-81
2022/12/21 01:20:06;;;;;;;;;;;;;;;;;;5043616;28;19925;-82
2022/12/21 01:22:32;;;;;;;;;;;;;;;;;;5044116;28;20393;-81
2022/12/21 01:24:58;;;;;;;;;;;;;;;;;;5029541;28;19929;-82
2022/12/21 01:27:24;;;;;;;;;;;;;;;;;;5046312;28;19932;-81
2022/12/21 01:29:50;;;;;;;;;;;;;;;;;;5042925;28;19993;-81
2022/12/21 01:32:16;;;;;;;;;;;;;;;;;;5043369;28;19928;-82
2022/12/21 01:34:42;;;;;;;;;;;;;;;;;;5044150;28;19925;-81
2022/12/21 01:37:08;;;;;;;;;;;;;;;;;;5045781;28;19929;-82
2022/12/21 01:39:34;;;;;;;;;;;;;;;;;;5036812;28;19974;-82
2022/12/21 01:42:00;;;;;;;;;;;;;;;;;;5044599;28;19937;-83
2022/12/21 01:44:26;;;;;;;;;;;;;;;;;;5045506;28;19968;-83
2022/12/21 01:46:51;;;;;;;;;;;;;;;;;;5047604;28;19956;-81
2022/12/21 01:49:17;;;;;;;;;;;;;;;;;;5051078;28;19921;-81
2022/12/21 01:51:43;;;;;;;;;;;;;;;;;;5053401;28;19925;-81
2022/12/21 01:54:09;;;;;;;;;;;;;;;;;;5046056;28;20017;-82
2022/12/21 01:56:35;;;;;;;;;;;;;;;;;;5044192;28;19925;-82
2022/12/21 01:59:01;;;;;;;;;;;;;;;;;;5042643;28;19925;-82
2022/12/21 02:01:30;;;;;;;;;;;;;;;;;;5036646;28;19933;-81
2022/12/21 02:03:56;;;;;;;;;;;;;;;;;;5045890;28;19988;-80
2022/12/21 02:06:22;;;;;;;;;;;;;;;;;;5049689;28;19925;-82
2022/12/21 02:08:48;;;;;;;;;;;;;;;;;;5044161;28;19929;-81
2022/12/21 02:11:14;;;;;;;;;;;;;;;;;;5036936;28;19925;-81
2022/12/21 02:13:40;;;;;;;;;;;;;;;;;;5039471;28;19928;-81
2022/12/21 02:16:07;;;;;;;;;;;;;;;;;;5042085;28;19925;-81
2022/12/21 02:18:33;;;;;;;;;;;;;;;;;;5042377;28;19940;-81
2022/12/21 02:20:58;;;;;;;;;;;;;;;;;;5043214;28;19929;-81
2022/12/21 02:23:24;;;;;;;;;;;;;;;;;;5040674;28;19921;-80
2022/12/21 02:25:50;;;;;;;;;;;;;;;;;;5039569;28;19948;-81
2022/12/21 02:28:16;;;;;;;;;;;;;;;;;;5031934;28;19948;-79
2022/12/21 02:30:42;;;;;;;;;;;;;;;;;;5041468;28;19936;-81
2022/12/21 02:33:08;;;;;;;;;;;;;;;;;;5042375;28;19929;-81
2022/12/21 02:35:34;;;;;;;;;;;;;;;;;;5035609;28;19930;-80
2022/12/21 02:38:00;;;;;;;;;;;;;;;;;;5041140;28;19925;-81
2022/12/21 02:40:26;;;;;;;;;;;;;;;;;;5042788;28;19925;-81
2022/12/21 02:45:36;;;;;;;;;;;;;;;;;;5039500;28;19929;-81
2022/12/21 02:48:02;;;;;;;;;;;;;;;;;;5040476;28;20009;-81
2022/12/21 02:50:28;;;;;;;;;;;;;;;;;;5040362;28;20082;-81
2022/12/21 02:52:54;;;;;;;;;;;;;;;;;;5038261;28;20067;-81
2022/12/21 02:55:20;;;;;;;;;;;;;;;;;;5037965;28;20012;-81
2022/12/21 02:57:46;;;;;;;;;;;;;;;;;;5039138;28;20012;-80
2022/12/21 03:00:11;;;;;;;;;;;;;;;;;;5029205;28;19925;-80
2022/12/21 03:02:37;;;;;;;;;;;;;;;;;;5036194;28;19925;-81
2022/12/21 03:05:03;;;;;;;;;;;;;;;;;;5037465;28;20342;-81
2022/12/21 03:07:29;;;;;;;;;;;;;;;;;;5036938;28;19970;-81
2022/12/21 03:09:55;;;;;;;;;;;;;;;;;;5040169;28;19932;-81
2022/12/21 03:12:21;;;;;;;;;;;;;;;;;;5041035;28;19937;-81
2022/12/21 03:14:47;;;;;;;;;;;;;;;;;;5039573;28;19925;-80
2022/12/21 03:17:13;;;;;;;;;;;;;;;;;;5039458;28;20330;-81
2022/12/21 03:19:39;;;;;;;;;;;;;;;;;;5040041;28;19935;-80
2022/12/21 03:22:05;;;;;;;;;;;;;;;;;;5032803;28;19972;-81
2022/12/21 03:24:31;;;;;;;;;;;;;;;;;;5038515;28;19947;-80
2022/12/21 03:26:56;;;;;;;;;;;;;;;;;;5041313;28;20371;-81
2022/12/21 03:29:22;;;;;;;;;;;;;;;;;;5040136;28;19940;-81
2022/12/21 03:31:48;;;;;;;;;;;;;;;;;;5033617;28;19936;-80
2022/12/21 03:34:14;;;;;;;;;;;;;;;;;;5027294;28;19929;-80
2022/12/21 03:36:40;;;;;;;;;;;;;;;;;;5038679;28;19941;-81
2022/12/21 03:39:06;;;;;;;;;;;;;;;;;;5036957;28;19925;-80
2022/12/21 03:41:34;;;;;;;;;;;;;;;;;;5051922;28;20367;-80
2022/12/21 03:44:00;;;;;;;;;;;;;;;;;;5042025;28;19932;-81
2022/12/21 03:46:25;;;;;;;;;;;;;;;;;;5038288;28;20291;-81
2022/12/21 03:48:51;;;;;;;;;;;;;;;;;;5045478;28;19913;-80
2022/12/21 03:51:18;;;;;;;;;;;;;;;;;;5051068;28;19983;-81
2022/12/21 03:53:44;;;;;;;;;;;;;;;;;;5043778;28;19925;-81
2022/12/21 03:56:10;;;;;;;;;;;;;;;;;;5046172;28;19929;-80
2022/12/21 03:58:36;;;;;;;;;;;;;;;;;;5026125;28;20440;-80
2022/12/21 04:01:02;;;;;;;;;;;;;;;;;;5042592;28;19968;-80
2022/12/21 04:03:28;;;;;;;;;;;;;;;;;;5034671;28;19921;-80
2022/12/21 04:05:54;;;;;;;;;;;;;;;;;;5043522;28;19925;-80
2022/12/21 04:08:20;;;;;;;;;;;;;;;;;;5043269;28;19944;-80
2022/12/21 04:10:46;;;;;;;;;;;;;;;;;;5036373;28;19925;-81
2022/12/21 04:13:12;;;;;;;;;;;;;;;;;;5039884;28;19925;-81
2022/12/21 04:21:07;;;;;;;;;;;;;;;;;;5061025;28;19964;-81
2022/12/21 04:29:03;;;;;;;;;;;;;;;;;;5039441;28;19925;-80
2022/12/21 04:31:28;;;;;;;;;;;;;;;;;;5041959;28;19983;-81
2022/12/21 04:33:54;;;;;;;;;;;;;;;;;;5015872;28;19987;-81
2022/12/21 04:39:05;;;;;;;;;;;;;;;;;;5036602;28;19952;-82
2022/12/21 04:41:31;;;;;;;;;;;;;;;;;;5046307;28;20371;-81
2022/12/21 04:43:57;;;;;;;;;;;;;;;;;;5059132;28;19925;-81
2022/12/21 04:46:23;;;;;;;;;;;;;;;;;;5057132;28;19932;-81
2022/12/21 04:48:48;;;;;;;;;;;;;;;;;;5049096;28;19929;-81
2022/12/21 04:51:14;;;;;;;;;;;;;;;;;;5046682;28;19932;-80
2022/12/21 04:53:40;;;;;;;;;;;;;;;;;;5046976;28;19929;-81
2022/12/21 04:56:06;;;;;;;;;;;;;;;;;;5049357;28;19931;-80
2022/12/21 04:58:32;;;;;;;;;;;;;;;;;;5049643;28;19925;-81
2022/12/21 05:00:58;;;;;;;;;;;;;;;;;;5049491;28;19932;-80
2022/12/21 05:03:24;;;;;;;;;;;;;;;;;;5044914;28;19989;-81
2022/12/21 05:05:50;;;;;;;;;;;;;;;;;;5041183;28;19968;-81
2022/12/21 05:08:16;;;;;;;;;;;;;;;;;;5051176;28;19939;-80
2022/12/21 05:10:42;;;;;;;;;;;;;;;;;;5055606;28;19931;-80
2022/12/21 05:13:08;;;;;;;;;;;;;;;;;;5057223;28;19925;-81
2022/12/21 05:15:34;;;;;;;;;;;;;;;;;;5044699;28;19925;-80
2022/12/21 05:18:00;;;;;;;;;;;;;;;;;;5059821;28;19929;-81
2022/12/21 05:20:26;;;;;;;;;;;;;;;;;;5056886;28;19925;-80
2022/12/21 05:22:52;;;;;;;;;;;;;;;;;;5058225;28;19925;-80
2022/12/21 05:25:17;;;;;;;;;;;;;;;;;;5055252;28;19956;-82
2022/12/21 05:27:43;;;;;;;;;;;;;;;;;;5054813;28;19913;-80
2022/12/21 05:30:09;;;;;;;;;;;;;;;;;;5048015;28;19929;-80
2022/12/21 05:32:35;;;;;;;;;;;;;;;;;;5042353;28;19937;-80
2022/12/21 05:35:02;;;;;;;;;;;;;;;;;;5038380;28;19936;-81
2022/12/21 05:37:29;;;;;;;;;;;;;;;;;;5056865;28;19932;-80
2022/12/21 05:39:55;;;;;;;;;;;;;;;;;;5067710;28;19935;-80
2022/12/21 05:42:21;;;;;;;;;;;;;;;;;;5058566;28;19933;-81
2022/12/21 05:44:47;;;;;;;;;;;;;;;;;;5062189;28;19925;-80
2022/12/21 05:47:13;;;;;;;;;;;;;;;;;;5060134;28;19981;-81
2022/12/21 05:49:39;;;;;;;;;;;;;;;;;;5072294;28;19920;-81
2022/12/21 05:52:05;;;;;;;;;;;;;;;;;;5062862;28;19913;-80
2022/12/21 05:54:30;;;;;;;;;;;;;;;;;;5057584;28;19921;-81
2022/12/21 05:56:56;;;;;;;;;;;;;;;;;;5061351;28;19943;-80
2022/12/21 05:59:22;;;;;;;;;;;;;;;;;;5062170;28;19929;-80
2022/12/21 06:01:49;;;;;;;;;;;;;;;;;;5057738;28;19947;-80
2022/12/21 06:04:14;;;;;;;;;;;;;;;;;;5050375;28;19949;-79
2022/12/21 06:06:40;;;;;;;;;;;;;;;;;;5048887;28;19951;-79
2022/12/21 06:09:06;;;;;;;;;;;;;;;;;;5044549;28;19979;-78
2022/12/21 06:11:32;;;;;;;;;;;;;;;;;;5051585;28;19925;-78
2022/12/21 06:13:58;;;;;;;;;;;;;;;;;;5053725;28;19925;-78
2022/12/21 06:16:24;;;;;;;;;;;;;;;;;;5055454;28;19925;-78
2022/12/21 06:18:50;;;;;;;;;;;;;;;;;;5054417;28;20004;-78
2022/12/21 06:21:16;;;;;;;;;;;;;;;;;;5043176;28;19936;-78
2022/12/21 06:23:42;;;;;;;;;;;;;;;;;;5048697;28;19921;-78
2022/12/21 06:26:08;;;;;;;;;;;;;;;;;;5047709;28;19925;-79
2022/12/21 06:28:34;;;;;;;;;;;;;;;;;;5056008;28;19985;-79
2022/12/21 06:31:00;;;;;;;;;;;;;;;;;;5050036;28;19933;-79
2022/12/21 06:33:25;;;;;;;;;;;;;;;;;;5046584;28;19932;-79
2022/12/21 06:35:51;;;;;;;;;;;;;;;;;;5046714;28;19934;-78
2022/12/21 06:38:17;;;;;;;;;;;;;;;;;;5051583;28;19932;-78
2022/12/21 06:40:43;;;;;;;;;;;;;;;;;;5042906;28;20004;-79
2022/12/21 06:43:10;;;;;;;;;;;;;;;;;;5049882;28;20093;-78
2022/12/21 06:45:36;;;;;;;;;;;;;;;;;;5055618;28;19913;-79
2022/12/21 06:48:02;;;;;;;;;;;;;;;;;;5052290;28;19948;-79
2022/12/21 06:50:28;;;;;;;;;;;;;;;;;;5051875;28;19951;-78
2022/12/21 06:52:54;;;;;;;;;;;;;;;;;;5052872;28;19956;-78
2022/12/21 06:55:20;;;;;;;;;;;;;;;;;;5050799;28;19925;-79
2022/12/21 06:57:46;;;;;;;;;;;;;;;;;;5048395;28;19920;-79
2022/12/21 07:00:13;;;;;;;;;;;;;;;;;;5048222;28;19947;-78
2022/12/21 07:02:39;;;;;;;;;;;;;;;;;;5056002;28;19929;-78
2022/12/21 07:05:05;;;;;;;;;;;;;;;;;;5054744;28;19927;-78
2022/12/21 07:07:31;;;;;;;;;;;;;;;;;;5056562;28;19935;-79
2022/12/21 07:09:56;;;;;;;;;;;;;;;;;;5055850;28;19948;-79
2022/12/21 07:12:22;;;;;;;;;;;;;;;;;;5053228;28;19933;-79
2022/12/21 07:14:48;;;;;;;;;;;;;;;;;;5056986;28;19935;-79
2022/12/21 07:17:14;;;;;;;;;;;;;;;;;;5057035;28;19935;-79
2022/12/21 07:19:40;;;;;;;;;;;;;;;;;;5056845;28;19910;-78
2022/12/21 07:22:06;;;;;;;;;;;;;;;;;;5056786;28;19936;-79
2022/12/21 07:24:32;;;;;;;;;;;;;;;;;;5041956;28;20044;-78
2022/12/21 07:26:58;;;;;;;;;;;;;;;;;;5045650;28;20051;-79
2022/12/21 07:29:24;;;;;;;;;;;;;;;;;;5053422;28;19925;-78
2022/12/21 07:31:51;;;;;;;;;;;;;;;;;;5055240;28;19925;-79
2022/12/21 07:34:17;;;;;;;;;;;;;;;;;;5053825;28;19984;-78
2022/12/21 07:36:43;;;;;;;;;;;;;;;;;;5049507;28;19909;-78
2022/12/21 07:39:09;;;;;;;;;;;;;;;;;;5055366;28;19929;-78
2022/12/21 07:41:35;;;;;;;;;;;;;;;;;;5054904;28;19925;-78
2022/12/21 07:44:01;;;;;;;;;;;;;;;;;;5058593;28;19967;-78
2022/12/21 07:46:27;;;;;;;;;;;;;;;;;;5054521;28;19921;-78
2022/12/21 07:48:53;;;;;;;;;;;;;;;;;;5037286;28;19933;-78
2022/12/21 07:51:18;;;;;;;;;;;;;;;;;;5044912;28;19929;-79
2022/12/21 07:53:44;;;;;;;;;;;;;;;;;;5038465;28;19925;-78
2022/12/21 07:56:10;;;;;;;;;;;;;;;;;;5054782;28;19932;-78
2022/12/21 07:58:36;;;;;;;;;;;;;;;;;;5054906;28;19924;-78
2022/12/21 08:01:03;;;;;;;;;;;;;;;;;;5048363;28;19925;-79
2022/12/21 08:03:28;;;;;;;;;;;;;;;;;;5035730;28;19979;-79
2022/12/21 08:05:54;;;;;;;;;;;;;;;;;;5046712;28;19925;-78
2022/12/21 08:08:20;;;;;;;;;;;;;;;;;;5042517;28;19925;-79
2022/12/21 08:10:46;;;;;;;;;;;;;;;;;;5026225;28;19925;-79
2022/12/21 08:13:12;;;;;;;;;;;;;;;;;;5032676;28;19925;-78
2022/12/21 08:15:38;;;;;;;;;;;;;;;;;;5036050;28;19925;-79
2022/12/21 08:18:04;;;;;;;;;;;;;;;;;;5038089;28;19995;-79
2022/12/21 08:20:30;;;;;;;;;;;;;;;;;;5037399;28;20025;-79
2022/12/21 08:22:56;;;;;;;;;;;;;;;;;;5040475;28;19973;-78
2022/12/21 08:25:22;;;;;;;;;;;;;;;;;;5040676;28;19932;-79
2022/12/21 08:27:48;;;;;;;;;;;;;;;;;;5039375;28;19933;-79
2022/12/21 08:30:15;;;;;;;;;;;;;;;;;;5040641;28;20379;-79
2022/12/21 08:32:41;;;;;;;;;;;;;;;;;;5039575;28;19932;-78
2022/12/21 08:35:07;;;;;;;;;;;;;;;;;;5047512;28;19981;-78
2022/12/21 08:37:33;;;;;;;;;;;;;;;;;;5040383;28;20004;-79
2022/12/21 08:39:59;;;;;;;;;;;;;;;;;;5038242;28;19936;-78
2022/12/21 08:42:24;;;;;;;;;;;;;;;;;;5041352;28;19932;-78
2022/12/21 08:44:50;;;;;;;;;;;;;;;;;;5044647;28;19925;-79
2022/12/21 08:47:16;;;;;;;;;;;;;;;;;;5028666;28;19925;-79
2022/12/21 08:49:42;;;;;;;;;;;;;;;;;;5023108;28;19972;-79
2022/12/21 08:52:08;;;;;;;;;;;;;;;;;;5025601;28;19928;-79
2022/12/21 08:54:34;;;;;;;;;;;;;;;;;;5021285;28;19925;-79
2022/12/21 08:57:00;;;;;;;;;;;;;;;;;;5022015;28;20008;-78
2022/12/21 08:59:26;;;;;;;;;;;;;;;;;;5032634;28;19969;-79
2022/12/21 09:01:52;;;;;;;;;;;;;;;;;;5038973;28;19984;-79
2022/12/21 09:04:18;;;;;;;;;;;;;;;;;;5041005;28;20012;-79
2022/12/21 09:06:44;;;;;;;;;;;;;;;;;;5039331;28;19925;-78
2022/12/21 09:09:10;;;;;;;;;;;;;;;;;;5038558;28;19925;-79
2022/12/21 09:11:36;;;;;;;;;;;;;;;;;;5038330;28;19925;-79
2022/12/21 09:14:02;;;;;;;;;;;;;;;;;;5037623;28;19932;-79
2022/12/21 09:16:28;;;;;;;;;;;;;;;;;;5038414;28;19925;-79
2022/12/21 09:18:54;;;;;;;;;;;;;;;;;;5034426;28;19925;-79
2022/12/21 09:21:20;;;;;;;;;;;;;;;;;;5016104;28;19949;-78
2022/12/21 09:23:46;;;;;;;;;;;;;;;;;;5018287;28;19925;-78
2022/12/21 09:26:12;;;;;;;;;;;;;;;;;;5017534;28;19932;-79
2022/12/21 09:28:38;;;;;;;;;;;;;;;;;;5032760;28;19925;-78
2022/12/21 09:31:04;;;;;;;;;;;;;;;;;;5023563;28;19925;-78
2022/12/21 09:33:29;;;;;;;;;;;;;;;;;;5038465;28;20350;-79
2022/12/21 09:35:56;;;;;;;;;;;;;;;;;;5039369;28;20019;-78
2022/12/21 09:38:22;;;;;;;;;;;;;;;;;;5035311;28;20322;-78
2022/12/21 09:40:48;;;;;;;;;;;;;;;;;;5037634;28;19931;-79
2022/12/21 09:43:13;;;;;;;;;;;;;;;;;;5038322;28;20279;-78
2022/12/21 09:45:39;;;;;;;;;;;;;;;;;;5037767;28;20019;-79
2022/12/21 09:48:05;;;;;;;;;;;;;;;;;;5038806;28;20305;-78
2022/12/21 09:50:31;;;;;;;;;;;;;;;;;;5036543;28;20063;-79
2022/12/21 09:52:57;;;;;;;;;;;;;;;;;;5036686;28;20352;-79
2022/12/21 09:55:25;;;;;;;;;;;;;;;;;;5036067;28;20067;-79
2022/12/21 09:57:51;;;;;;;;;;;;;;;;;;5027663;28;20507;-79
2022/12/21 10:00:17;;;;;;;;;;;;;;;;;;5037027;28;19932;-78
2022/12/21 10:02:43;;;;;;;;;;;;;;;;;;5034657;28;19929;-79
2022/12/21 10:05:08;;;;;;;;;;;;;;;;;;5028967;28;19925;-79
2022/12/21 10:07:34;;;;;;;;;;;;;;;;;;5034258;28;19932;-78
2022/12/21 10:10:00;;;;;;;;;;;;;;;;;;5017014;28;19925;-79
2022/12/21 10:12:26;;;;;;;;;;;;;;;;;;5036216;28;19929;-79
2022/12/21 10:14:52;;;;;;;;;;;;;;;;;;5037450;28;20295;-78
2022/12/21 10:17:18;;;;;;;;;;;;;;;;;;5032591;28;19932;-78
2022/12/21 10:19:44;;;;;;;;;;;;;;;;;;5037151;28;19960;-78
2022/12/21 10:22:10;;;;;;;;;;;;;;;;;;5036109;28;19933;-78
2022/12/21 10:24:36;;;;;;;;;;;;;;;;;;5027464;28;19925;-79
2022/12/21 10:27:01;;;;;;;;;;;;;;;;;;5026195;28;19925;-78
2022/12/21 10:29:27;;;;;;;;;;;;;;;;;;5035126;28;19925;-78
2022/12/21 10:31:53;;;;;;;;;;;;;;;;;;5036091;28;20291;-78
2022/12/21 10:34:19;;;;;;;;;;;;;;;;;;5037343;28;19951;-78
2022/12/21 10:36:45;;;;;;;;;;;;;;;;;;5036413;28;19932;-78
2022/12/21 10:39:11;;;;;;;;;;;;;;;;;;5034370;28;19932;-78
2022/12/21 10:41:37;;;;;;;;;;;;;;;;;;5035585;28;20353;-78
2022/12/21 10:44:03;;;;;;;;;;;;;;;;;;5037253;28;20032;-78
2022/12/21 10:46:29;;;;;;;;;;;;;;;;;;5024208;28;20268;-78
2022/12/21 10:48:55;;;;;;;;;;;;;;;;;;5031735;28;19925;-78
2022/12/21 10:51:21;;;;;;;;;;;;;;;;;;5021107;28;19925;-78
2022/12/21 10:53:47;;;;;;;;;;;;;;;;;;5015342;28;20342;-78
2022/12/21 10:56:12;;;;;;;;;;;;;;;;;;5034566;28;20386;-78
2022/12/21 10:58:38;;;;;;;;;;;;;;;;;;5012175;28;19932;-78
2022/12/21 11:01:04;;;;;;;;;;;;;;;;;;5017885;28;19983;-78
2022/12/21 11:03:31;;;;;;;;;;;;;;;;;;5034803;28;20390;-78
2022/12/21 11:05:57;;;;;;;;;;;;;;;;;;5032899;28;20379;-79
2022/12/21 11:08:23;;;;;;;;;;;;;;;;;;5015534;28;19929;-79
2022/12/21 11:10:48;;;;;;;;;;;;;;;;;;5024512;28;20020;-78
2022/12/21 11:13:14;;;;;;;;;;;;;;;;;;5016586;28;19933;-78
2022/12/21 11:15:40;;;;;;;;;;;;;;;;;;5027072;28;19967;-78
2022/12/21 11:18:06;;;;;;;;;;;;;;;;;;5034514;28;20382;-77
2022/12/21 11:20:32;;;;;;;;;;;;;;;;;;5020409;28;19926;-78
2022/12/21 11:22:58;;;;;;;;;;;;;;;;;;5014899;28;19929;-78
2022/12/21 11:25:24;;;;;;;;;;;;;;;;;;5022807;28;19925;-78
2022/12/21 11:27:50;;;;;;;;;;;;;;;;;;5029897;28;20371;-78
2022/12/21 11:30:16;;;;;;;;;;;;;;;;;;5034389;28;19925;-78
2022/12/21 11:32:42;;;;;;;;;;;;;;;;;;5016719;28;19926;-77
2022/12/21 11:35:07;;;;;;;;;;;;;;;;;;5030266;28;20291;-78
2022/12/21 11:37:33;;;;;;;;;;;;;;;;;;5026070;28;19947;-78
2022/12/21 11:39:59;;;;;;;;;;;;;;;;;;5019677;28;19975;-77
2022/12/21 11:42:25;;;;;;;;;;;;;;;;;;5037001;28;19925;-78
2022/12/21 11:44:51;;;;;;;;;;;;;;;;;;5034703;28;19925;-78
2022/12/21 11:47:17;;;;;;;;;;;;;;;;;;5033927;28;20016;-78
2022/12/21 11:49:44;;;;;;;;;;;;;;;;;;5033359;28;19925;-78
2022/12/21 11:52:10;;;;;;;;;;;;;;;;;;5021682;28;19979;-79
2022/12/21 11:54:36;;;;;;;;;;;;;;;;;;5033706;28;19925;-78
2022/12/21 11:57:01;;;;;;;;;;;;;;;;;;5033544;28;19925;-77
2022/12/21 11:59:27;;;;;;;;;;;;;;;;;;5033002;28;19925;-79
2022/12/21 12:01:54;;;;;;;;;;;;;;;;;;5018946;28;20019;-78
2022/12/21 12:04:20;;;;;;;;;;;;;;;;;;5025075;28;19968;-78
2022/12/21 12:06:46;;;;;;;;;;;;;;;;;;5031601;28;20394;-78
2022/12/21 12:09:12;;;;;;;;;;;;;;;;;;5031056;28;20007;-78
2022/12/21 12:11:38;;;;;;;;;;;;;;;;;;5028270;28;19979;-77
2022/12/21 12:14:04;;;;;;;;;;;;;;;;;;5028965;28;19931;-78
2022/12/21 12:16:30;;;;;;;;;;;;;;;;;;5022200;28;20101;-77
2022/12/21 12:18:55;;;;;;;;;;;;;;;;;;5038572;28;20381;-76
2022/12/21 12:21:21;;;;;;;;;;;;;;;;;;5030032;28;20017;-76
2022/12/21 12:23:47;;;;;;;;;;;;;;;;;;5029379;28;19933;-76
2022/12/21 12:26:13;;;;;;;;;;;;;;;;;;5026629;28;20486;-76
2022/12/21 12:28:39;;;;;;;;;;;;;;;;;;5030439;28;19929;-77
2022/12/21 12:31:05;;;;;;;;;;;;;;;;;;5043122;28;19947;-77
2022/12/21 12:33:31;;;;;;;;;;;;;;;;;;5043957;28;19931;-77
2022/12/21 12:35:57;;;;;;;;;;;;;;;;;;5031391;28;20525;-77
2022/12/21 12:38:23;;;;;;;;;;;;;;;;;;5035914;28;20012;-77
2022/12/21 12:40:49;;;;;;;;;;;;;;;;;;5027722;28;19976;-77
2022/12/21 12:43:15;;;;;;;;;;;;;;;;;;5024847;28;19975;-77
2022/12/21 12:45:41;;;;;;;;;;;;;;;;;;5030397;28;20331;-77
2022/12/21 12:48:07;;;;;;;;;;;;;;;;;;5040233;28;19931;-77
2022/12/21 12:50:33;;;;;;;;;;;;;;;;;;5036941;28;20409;-77
2022/12/21 12:52:59;;;;;;;;;;;;;;;;;;5033004;28;19975;-77
2022/12/21 12:55:25;;;;;;;;;;;;;;;;;;5041401;28;19929;-77
2022/12/21 12:57:51;;;;;;;;;;;;;;;;;;5041824;28;20301;-78
2022/12/21 13:00:18;;;;;;;;;;;;;;;;;;5054477;28;20290;-77
2022/12/21 13:02:43;;;;;;;;;;;;;;;;;;5046076;28;19925;-77
2022/12/21 13:05:09;;;;;;;;;;;;;;;;;;5044644;28;19929;-77
2022/12/21 13:07:35;;;;;;;;;;;;;;;;;;5041413;28;20326;-78
2022/12/21 13:10:01;;;;;;;;;;;;;;;;;;5050044;28;19931;-77
2022/12/21 13:12:27;;;;;;;;;;;;;;;;;;5032289;28;19925;-77
2022/12/21 13:14:53;;;;;;;;;;;;;;;;;;5033010;28;20268;-77
2022/12/21 13:17:19;;;;;;;;;;;;;;;;;;5033708;28;19948;-77
2022/12/21 13:19:45;;;;;;;;;;;;;;;;;;5035965;28;19933;-77
2022/12/21 13:22:11;;;;;;;;;;;;;;;;;;5024463;28;19933;-77
2022/12/21 13:24:37;;;;;;;;;;;;;;;;;;5034363;28;19925;-77
2022/12/21 13:27:03;;;;;;;;;;;;;;;;;;5034210;28;19934;-77
2022/12/21 13:29:29;;;;;;;;;;;;;;;;;;5024918;28;20294;-77
2022/12/21 13:31:55;;;;;;;;;;;;;;;;;;5030107;28;20012;-77
2022/12/21 13:34:21;;;;;;;;;;;;;;;;;;5032481;28;19925;-78
2022/12/21 13:36:47;;;;;;;;;;;;;;;;;;5035681;28;19933;-77
2022/12/21 13:39:13;;;;;;;;;;;;;;;;;;5031268;28;19925;-77
2022/12/21 13:41:39;;;;;;;;;;;;;;;;;;5025986;28;19932;-77
2022/12/21 13:44:05;;;;;;;;;;;;;;;;;;5036703;28;19929;-78
2022/12/21 13:46:30;;;;;;;;;;;;;;;;;;5035618;28;19943;-78
2022/12/21 13:48:56;;;;;;;;;;;;;;;;;;5038356;28;19979;-78
2022/12/21 13:51:22;;;;;;;;;;;;;;;;;;5041977;28;19925;-77
2022/12/21 13:53:48;;;;;;;;;;;;;;;;;;5046460;28;20372;-77
2022/12/21 13:56:14;;;;;;;;;;;;;;;;;;5017456;28;19929;-77
2022/12/21 13:58:40;;;;;;;;;;;;;;;;;;5035052;28;19932;-77
2022/12/21 14:01:06;;;;;;;;;;;;;;;;;;5035683;28;20746;-77
2022/12/21 14:03:32;;;;;;;;;;;;;;;;;;5036622;28;19944;-78
2022/12/21 14:05:58;;;;;;;;;;;;;;;;;;5035118;28;19925;-77
2022/12/21 14:08:24;;;;;;;;;;;;;;;;;;5035624;28;19925;-77
2022/12/21 14:10:49;;;;;;;;;;;;;;;;;;5036704;28;19929;-78
2022/12/21 14:13:15;;;;;;;;;;;;;;;;;;5034769;28;19925;-77
2022/12/21 14:15:41;;;;;;;;;;;;;;;;;;5035174;28;19925;-77
2022/12/21 14:18:07;;;;;;;;;;;;;;;;;;5035226;28;20260;-77
2022/12/21 14:20:33;;;;;;;;;;;;;;;;;;5035675;28;19925;-77
2022/12/21 14:22:59;;;;;;;;;;;;;;;;;;5033751;28;19963;-77
2022/12/21 14:25:25;;;;;;;;;;;;;;;;;;5025121;28;19983;-78
2022/12/21 14:27:51;;;;;;;;;;;;;;;;;;5033698;28;19925;-77
2022/12/21 14:30:17;;;;;;;;;;;;;;;;;;5027339;28;19925;-78
2022/12/21 14:32:43;;;;;;;;;;;;;;;;;;5032331;28;20767;-78
2022/12/21 14:35:08;;;;;;;;;;;;;;;;;;5035478;28;20052;-78
2022/12/21 14:37:34;;;;;;;;;;;;;;;;;;5034738;28;20011;-78
2022/12/21 14:40:00;;;;;;;;;;;;;;;;;;5032602;28;19925;-78
2022/12/21 14:42:26;;;;;;;;;;;;;;;;;;5027414;28;19925;-78
2022/12/21 14:44:52;;;;;;;;;;;;;;;;;;5029613;28;20309;-78
2022/12/21 14:47:18;;;;;;;;;;;;;;;;;;5024308;28;19993;-77
2022/12/21 14:49:44;;;;;;;;;;;;;;;;;;5020097;28;19979;-77
2022/12/21 14:52:10;;;;;;;;;;;;;;;;;;5030560;28;20256;-77
2022/12/21 14:54:36;;;;;;;;;;;;;;;;;;5021733;28;20034;-78
2022/12/21 14:57:02;;;;;;;;;;;;;;;;;;5031181;28;19925;-77
2022/12/21 14:59:28;;;;;;;;;;;;;;;;;;5031182;28;19971;-77
2022/12/21 15:01:54;;;;;;;;;;;;;;;;;;5032576;28;20398;-77
2022/12/21 15:04:20;;;;;;;;;;;;;;;;;;5029007;28;19926;-77
2022/12/21 15:06:46;;;;;;;;;;;;;;;;;;5034952;28;19971;-78
2022/12/21 15:09:12;;;;;;;;;;;;;;;;;;5035342;28;20371;-77
2022/12/21 15:11:38;;;;;;;;;;;;;;;;;;5015900;28;19926;-77
2022/12/21 15:14:05;;;;;;;;;;;;;;;;;;5015686;28;19925;-77
2022/12/21 15:16:31;;;;;;;;;;;;;;;;;;5013920;28;19925;-77
2022/12/21 15:18:57;;;;;;;;;;;;;;;;;;5030377;28;19933;-78
2022/12/21 15:21:23;;;;;;;;;;;;;;;;;;5034263;28;19925;-77
2022/12/21 15:23:49;;;;;;;;;;;;;;;;;;5034792;28;19929;-77
2022/12/21 15:26:15;;;;;;;;;;;;;;;;;;5034045;28;20398;-77
2022/12/21 15:28:41;;;;;;;;;;;;;;;;;;5034186;28;19929;-77
2022/12/21 15:31:07;;;;;;;;;;;;;;;;;;5018729;28;19925;-77
2022/12/21 15:33:34;;;;;;;;;;;;;;;;;;5035560;28;19972;-76
2022/12/21 15:35:59;;;;;;;;;;;;;;;;;;5033006;28;19933;-76
2022/12/21 15:38:25;;;;;;;;;;;;;;;;;;5030997;28;19925;-76
2022/12/21 15:40:51;;;;;;;;;;;;;;;;;;5037946;28;19976;-76
2022/12/21 15:43:17;;;;;;;;;;;;;;;;;;5045240;28;20378;-77
2022/12/21 15:45:43;;;;;;;;;;;;;;;;;;5032549;28;19976;-77
2022/12/21 15:48:09;;;;;;;;;;;;;;;;;;5031247;28;19936;-76
2022/12/21 15:50:35;;;;;;;;;;;;;;;;;;5026376;28;20311;-77
2022/12/21 15:53:02;;;;;;;;;;;;;;;;;;5031501;28;19925;-77
2022/12/21 15:55:28;;;;;;;;;;;;;;;;;;5024394;28;19930;-77
2022/12/21 15:57:54;;;;;;;;;;;;;;;;;;5012711;28;19926;-77
2022/12/21 16:00:20;;;;;;;;;;;;;;;;;;5030355;28;19975;-77
2022/12/21 16:02:46;;;;;;;;;;;;;;;;;;5033459;28;19925;-77
2022/12/21 16:05:12;;;;;;;;;;;;;;;;;;5032291;28;19952;-77
2022/12/21 16:07:38;;;;;;;;;;;;;;;;;;5031027;28;19925;-77
2022/12/21 16:10:04;;;;;;;;;;;;;;;;;;5027964;28;20363;-77
2022/12/21 16:12:33;;;;;;;;;;;;;;;;;;5024640;28;19979;-79
2022/12/21 16:14:59;;;;;;;;;;;;;;;;;;5032230;28;19951;-77
2022/12/21 16:17:25;;;;;;;;;;;;;;;;;;5032446;28;20379;-76
2022/12/21 16:19:51;;;;;;;;;;;;;;;;;;5028356;28;20059;-77
2022/12/21 16:22:17;;;;;;;;;;;;;;;;;;5026763;28;19987;-77
2022/12/21 16:24:43;;;;;;;;;;;;;;;;;;5029667;28;20446;-77
2022/12/21 16:27:09;;;;;;;;;;;;;;;;;;5022832;28;20001;-77
2022/12/21 16:29:35;;;;;;;;;;;;;;;;;;5033609;28;19925;-77
2022/12/21 16:32:01;;;;;;;;;;;;;;;;;;5027494;28;19925;-77
2022/12/21 16:34:27;;;;;;;;;;;;;;;;;;5018072;28;19925;-77
2022/12/21 16:36:53;;;;;;;;;;;;;;;;;;5018158;28;20378;-77
2022/12/21 16:39:19;;;;;;;;;;;;;;;;;;5035706;28;19925;-77
2022/12/21 16:41:44;;;;;;;;;;;;;;;;;;5037217;28;19925;-78
2022/12/21 16:44:10;;;;;;;;;;;;;;;;;;5037452;28;19925;-77
2022/12/21 16:46:36;;;;;;;;;;;;;;;;;;5020667;28;19925;-77
2022/12/21 16:49:02;;;;;;;;;;;;;;;;;;5018818;28;19957;-78
2022/12/21 16:51:28;;;;;;;;;;;;;;;;;;5036054;28;19972;-76
2022/12/21 16:53:54;;;;;;;;;;;;;;;;;;5023698;28;20316;-79